Rawalpindi Weather



Rawalpindi's Current Weather

Temprature 37.35o clear sky

clear sky

Rain: 0 %

Min Temprature37.35o
Max Temprature37.35o
Humidity41
Wind Speed2.24 m/h
Sun Rise05:14:08
Sun Set19:14:01
Current Time: 24-Jul-2021 17:10:54
Lat/Lon: 33.6007, 73.0679




Rawalpindi's Geo Location



Rawalpindi's Weather Forecast

Time Overall Temp Min Temp Max Temp Humidity Wind Speed Rain
24-Jul-2021 (Sat)
20:00:00 clear sky 37.000 36.310 37.000 37 0.97 m/h 0 %
23:00:00 clear sky 35.260 34.210 35.260 37 2.67 m/h 0 %
25-Jul-2021 (Sun)
02:00:00 clear sky 32.270 32.270 32.270 42 2.94 m/h 0 %
05:00:00 scattered clouds 31.170 31.170 31.170 47 3.02 m/h 0 %
08:00:00 scattered clouds 34.550 34.550 34.550 42 3.39 m/h 0 %
11:00:00 broken clouds 37.970 37.970 37.970 33 2.62 m/h 0 %
14:00:00 scattered clouds 40.390 40.390 40.390 26 1.99 m/h 0 %
17:00:00 scattered clouds 40.740 40.740 40.740 24 1.81 m/h 0 %
20:00:00 few clouds 37.380 37.380 37.380 31 1.14 m/h 0 %
23:00:00 clear sky 33.850 33.850 33.850 49 5.65 m/h 0 %
26-Jul-2021 (Mon)
02:00:00 broken clouds 32.190 32.190 32.190 59 4.97 m/h 0 %
05:00:00 broken clouds 31.190 31.190 31.190 63 4.26 m/h 0 %
08:00:00 broken clouds 33.110 33.110 33.110 57 5.33 m/h 0 %
11:00:00 broken clouds 36.690 36.690 36.690 46 4.66 m/h 0 %
14:00:00 broken clouds 39.310 39.310 39.310 36 3.04 m/h 0 %
17:00:00 broken clouds 37.240 37.240 37.240 42 4.55 m/h 0 %
20:00:00 scattered clouds 35.000 35.000 35.000 48 4.56 m/h 0 %
23:00:00 broken clouds 31.880 31.880 31.880 64 6.77 m/h 0 %
27-Jul-2021 (Tue)
02:00:00 light rain 29.210 29.210 29.210 77 5.45 m/h 12 %
05:00:00 light rain 28.710 28.710 28.710 78 4.94 m/h 80 %
08:00:00 light rain 28.980 28.980 28.980 76 4.18 m/h 31 %
11:00:00 overcast clouds 32.210 32.210 32.210 62 4.61 m/h 0 %
14:00:00 light rain 36.220 36.220 36.220 48 4.62 m/h 14 %
17:00:00 light rain 33.770 33.770 33.770 57 6.58 m/h 52 %
20:00:00 light rain 30.390 30.390 30.390 70 6.89 m/h 204 %
23:00:00 moderate rain 27.580 27.580 27.580 83 5.9 m/h 325 %
28-Jul-2021 (Wed)
02:00:00 moderate rain 26.760 26.760 26.760 84 6.24 m/h 351 %
05:00:00 moderate rain 26.180 26.180 26.180 87 3.99 m/h 317 %
08:00:00 light rain 25.830 25.830 25.830 88 4.16 m/h 245 %
11:00:00 moderate rain 25.320 25.320 25.320 90 3.65 m/h 549 %
14:00:00 light rain 26.200 26.200 26.200 88 4.33 m/h 174 %
17:00:00 light rain 26.030 26.030 26.030 86 5.3 m/h 103 %
20:00:00 light rain 25.800 25.800 25.800 85 3.8 m/h 45 %
23:00:00 light rain 26.030 26.030 26.030 83 1.57 m/h 48 %
29-Jul-2021 (Thu)
02:00:00 moderate rain 24.360 24.360 24.360 91 0.89 m/h 336 %
05:00:00 light rain 24.460 24.460 24.460 92 1.72 m/h 185 %
08:00:00 moderate rain 25.260 25.260 25.260 87 1.52 m/h 309 %
11:00:00 light rain 28.700 28.700 28.700 70 1.67 m/h 92 %
14:00:00 light rain 31.900 31.900 31.900 58 1.5 m/h 21 %
17:00:00 light rain 32.300 32.300 32.300 57 2.23 m/h 40 %


Rawalpindi's Tourist Spots

Parks and Zoos in Rawalpindi

Famous Cities (60)